This is the latest recevied weather packets stored in our database for station/object VE6EN. If no packets are shown the sender has not sent any weather packets the latest 10 day(s).
| Time | Temp. | Humidity | Pressure | Rain* | Wind** | Luminosity | Snow |
|---|---|---|---|---|---|---|---|
| 1788027605 | 18.33° C | 55% | 1009 hPa | 0 mm | - | - | - |
| 1788027003 | 18.33° C | 59% | 1009 hPa | 0 mm | - | - | - |
| 1788026404 | 18.33° C | 55% | 1009.2 hPa | 0 mm | - | - | - |
| 1788025803 | 18.33° C | 56% | 1009.3 hPa | 0 mm | - | - | - |
| 1788025203 | 18.89° C | 56% | 1009.3 hPa | 0 mm | - | - | - |
| 1788024600 | 18.89° C | 57% | 1009.5 hPa | 0 mm | - | - | - |
| 1788024003 | 18.89° C | 57% | 1009.4 hPa | 0 mm | - | - | - |
| 1788023403 | 18.33° C | 60% | 1009.4 hPa | 0 mm | - | - | - |
| 1788022806 | 17.78° C | 61% | 1009.5 hPa | 0 mm | - | - | - |
| 1788022204 | 16.67° C | 64% | 1009.7 hPa | 0 mm | - | - | - |
| 1788021603 | 16.11° C | 67% | 1009.8 hPa | 0 mm | - | - | - |
| 1788021003 | 15.56° C | 67% | 1010 hPa | 0 mm | - | - | - |
| 1788020403 | 15.56° C | 67% | 1010.2 hPa | 0 mm | - | - | - |
| 1788019803 | 15.56° C | 67% | 1010.3 hPa | 0 mm | - | - | - |
| 1788019202 | 15.56° C | 67% | 1010.3 hPa | 0 mm | - | - | - |
| 1788018603 | 15.56° C | 68% | 1010.2 hPa | 0 mm | - | - | - |
| 1788018004 | 15° C | 71% | 1010.3 hPa | 0 mm | - | - | - |
| 1788017404 | 14.44° C | 72% | 1010.3 hPa | 0 mm | - | - | - |
| 1788016802 | 13.89° C | 74% | 1010.3 hPa | 0 mm | - | - | - |
| 1788016201 | 12.78° C | 78% | 1010.3 hPa | 0 mm | - | - | - |
| 1788015604 | 12.22° C | 81% | 1010.4 hPa | 0 mm | - | - | - |
| 1788015000 | 11.11° C | 84% | 1010.3 hPa | 0 mm | - | - | - |
| 1788014403 | 10.56° C | 86% | 1010.3 hPa | 0 mm | - | - | - |
| 1788013799 | 10° C | 87% | 1010.3 hPa | 0 mm | - | - | - |
| 1788013199 | 9.44° C | 87% | 1010.3 hPa | 0 mm | - | - | - |
* Rain latest hour (hover to see other rain measurements)
** Current wind speed in m/s (hover to see current wind gust speed)